createdAt,value
2023-05-11T00:02:09.523Z,100905.56
2023-05-11T00:04:41.811Z,100907.78
2023-05-11T00:07:11.316Z,100910.44
2023-05-11T00:09:42.145Z,100904.00
2023-05-11T00:12:11.537Z,100920.00
2023-05-11T00:14:41.170Z,100907.53
2023-05-11T00:17:11.000Z,100914.13
2023-05-11T00:19:42.895Z,100917.75
2023-05-11T00:22:12.461Z,100918.22
2023-05-11T00:24:41.895Z,100920.97
2023-05-11T00:27:11.421Z,100912.59
2023-05-11T00:29:40.837Z,100920.50
2023-05-11T00:32:10.154Z,100916.84
2023-05-11T00:34:39.496Z,100913.34
2023-05-11T00:37:11.421Z,100906.44
2023-05-11T00:39:41.591Z,100913.91
2023-05-11T00:42:10.935Z,100911.47
2023-05-11T00:44:40.279Z,100910.09
2023-05-11T00:47:10.123Z,100915.84
2023-05-11T00:49:40.026Z,100907.06
2023-05-11T00:52:12.364Z,100924.66
2023-05-11T00:54:43.039Z,100914.00
2023-05-11T00:57:12.512Z,100911.75
2023-05-11T00:59:41.964Z,100906.69
2023-05-11T01:02:12.058Z,100911.28
2023-05-11T01:04:41.598Z,100913.19
2023-05-11T01:07:18.582Z,100913.22
2023-05-11T01:09:56.302Z,100910.13
2023-05-11T01:12:36.424Z,100913.19
2023-05-11T01:15:11.794Z,100911.88
2023-05-11T01:17:52.056Z,100911.34
2023-05-11T01:20:26.914Z,100912.94
2023-05-11T01:23:27.819Z,100928.44
2023-05-11T01:26:22.197Z,100919.75
2023-05-11T01:29:06.542Z,100923.38
2023-05-11T01:31:43.326Z,100918.38
2023-05-11T01:34:16.120Z,100915.19
2023-05-11T01:36:54.942Z,100923.13
2023-05-11T01:39:29.273Z,100932.03
2023-05-11T01:42:01.153Z,100930.88
2023-05-11T01:44:34.627Z,100931.66
2023-05-11T01:47:08.694Z,100933.25
2023-05-11T01:49:41.585Z,100933.28
2023-05-11T01:52:12.120Z,100933.25
2023-05-11T01:54:42.928Z,100937.66
2023-05-11T01:57:15.281Z,100936.00
2023-05-11T01:59:47.130Z,100935.22
2023-05-11T02:02:22.650Z,100937.91
2023-05-11T02:04:53.968Z,100928.69
2023-05-11T02:07:25.547Z,100932.44
2023-05-11T02:09:59.414Z,100938.50
2023-05-11T02:12:30.289Z,100936.94
2023-05-11T02:15:00.611Z,100938.56
2023-05-11T02:17:35.068Z,100942.34
2023-05-11T02:20:06.411Z,100938.81
2023-05-11T02:22:37.209Z,100945.81
2023-05-11T02:25:07.889Z,100939.00
2023-05-11T02:27:37.333Z,100953.69
2023-05-11T02:30:08.724Z,100949.31
2023-05-11T02:32:44.992Z,100939.84
2023-05-11T02:35:20.359Z,100951.50
2023-05-11T02:37:50.959Z,100949.09
2023-05-11T02:40:23.314Z,100951.81
2023-05-11T02:43:00.066Z,100945.84
2023-05-11T02:45:34.040Z,100945.09
2023-05-11T02:48:10.531Z,100942.56
2023-05-11T02:50:43.532Z,100952.09
2023-05-11T02:53:17.372Z,100946.44
2023-05-11T02:55:46.895Z,100954.03
2023-05-11T02:58:16.654Z,100955.69
2023-05-11T03:00:46.665Z,100952.69
2023-05-11T03:03:18.880Z,100951.31
2023-05-11T03:05:48.398Z,100957.00
2023-05-11T03:08:17.747Z,100954.59
2023-05-11T03:10:47.766Z,100960.81
2023-05-11T03:13:17.652Z,100954.63
2023-05-11T03:15:47.459Z,100956.72
2023-05-11T03:18:21.725Z,100958.06
2023-05-11T03:20:52.936Z,100948.31
2023-05-11T03:23:22.688Z,100951.59
2023-05-11T03:25:52.185Z,100949.97
2023-05-11T03:28:22.903Z,100957.03
2023-05-11T03:30:54.715Z,100949.94
2023-05-11T03:33:26.736Z,100949.94
2023-05-11T03:35:57.831Z,100953.50
2023-05-11T03:38:30.977Z,100955.66
2023-05-11T03:41:01.458Z,100951.63
2023-05-11T03:43:34.660Z,100952.16
2023-05-11T03:46:05.630Z,100951.09
2023-05-11T03:48:37.876Z,100950.00
2023-05-11T03:51:08.252Z,100947.22
2023-05-11T03:53:37.859Z,100952.66
2023-05-11T03:56:08.027Z,100954.00
2023-05-11T03:58:41.198Z,100946.47
2023-05-11T04:01:11.640Z,100949.44
2023-05-11T04:03:52.718Z,100949.69
2023-05-11T04:06:23.368Z,100951.31
2023-05-11T04:08:53.134Z,100954.31
2023-05-11T04:11:23.105Z,100957.03
2023-05-11T04:13:52.457Z,100957.56
2023-05-11T04:16:22.197Z,100958.91
2023-05-11T04:18:54.125Z,100953.47
2023-05-11T04:21:23.517Z,100956.25
2023-05-11T04:23:52.840Z,100956.78
2023-05-11T04:26:22.574Z,100955.69
2023-05-11T04:28:52.036Z,100959.72
2023-05-11T04:31:21.439Z,100963.81
2023-05-11T04:33:50.898Z,100960.59
2023-05-11T04:36:23.137Z,100958.72
2023-05-11T04:38:53.381Z,100965.47
2023-05-11T04:41:22.876Z,100964.66
2023-05-11T04:43:52.227Z,100970.09
2023-05-11T04:46:23.113Z,100971.69
2023-05-11T04:48:52.772Z,100961.69
2023-05-11T04:51:24.738Z,100972.78
2023-05-11T04:53:54.100Z,100972.81
2023-05-11T04:56:23.437Z,100970.34
2023-05-11T04:58:53.390Z,100978.72
2023-05-11T05:01:22.783Z,100981.19
2023-05-11T05:03:52.515Z,100974.41
2023-05-11T05:06:24.461Z,100970.88
2023-05-11T05:08:53.761Z,100980.94
2023-05-11T05:11:23.491Z,100982.28
2023-05-11T05:13:53.511Z,100977.66
2023-05-11T05:16:22.901Z,100979.56
2023-05-11T05:18:52.657Z,100984.75
2023-05-11T05:21:24.899Z,100977.69
2023-05-11T05:23:54.209Z,100980.94
2023-05-11T05:26:24.698Z,100980.66
2023-05-11T05:28:54.056Z,100985.25
2023-05-11T05:31:23.595Z,100986.63
2023-05-11T05:33:53.006Z,100988.22
2023-05-11T05:36:24.883Z,100990.97
2023-05-11T05:38:54.275Z,100994.50
2023-05-11T05:41:24.401Z,100989.06
2023-05-11T05:43:54.073Z,100999.91
2023-05-11T05:46:23.552Z,101001.22
2023-05-11T05:48:52.901Z,101002.38
2023-05-11T05:51:25.212Z,101007.78
2023-05-11T05:53:54.534Z,101011.56
2023-05-11T05:56:24.235Z,101007.22
2023-05-11T05:58:53.614Z,101010.50
2023-05-11T06:01:22.975Z,101025.94
2023-05-11T06:03:52.532Z,101012.13
2023-05-11T06:06:24.694Z,101026.47
2023-05-11T06:08:53.998Z,101026.19
2023-05-11T06:11:23.305Z,101022.72
2023-05-11T06:13:52.657Z,101037.88
2023-05-11T06:16:22.093Z,101019.44
2023-05-11T06:18:51.481Z,101030.28
2023-05-11T06:21:20.858Z,101022.16
2023-05-11T06:23:52.920Z,101024.88
2023-05-11T06:26:25.274Z,101018.91
2023-05-11T06:28:54.750Z,101025.94
2023-05-11T06:31:24.563Z,101025.16
2023-05-11T06:33:54.311Z,101019.97
2023-05-11T06:36:23.846Z,101018.88
2023-05-11T06:38:55.791Z,101020.78
2023-05-11T06:41:25.817Z,101026.19
2023-05-11T06:43:55.453Z,101022.38
2023-05-11T06:46:25.125Z,101028.13
2023-05-11T06:48:54.496Z,101027.00
2023-05-11T06:51:24.197Z,101022.69
2023-05-11T06:53:56.144Z,101028.34
2023-05-11T06:56:25.452Z,101020.25
2023-05-11T06:58:54.738Z,101024.06
2023-05-11T07:01:24.291Z,101020.53
2023-05-11T07:03:56.718Z,101028.13
2023-05-11T07:06:26.110Z,101033.25
2023-05-11T07:08:58.024Z,101030.84
2023-05-11T07:11:28.233Z,101033.25
2023-05-11T07:13:57.535Z,101025.66
2023-05-11T07:16:26.965Z,101036.50
2023-05-11T07:18:56.363Z,101034.31
2023-05-11T07:21:25.820Z,101038.94
2023-05-11T07:23:57.737Z,101037.28
2023-05-11T07:26:27.193Z,101032.44
2023-05-11T07:28:59.407Z,101033.81
2023-05-11T07:31:30.274Z,101037.88
2023-05-11T07:34:00.215Z,101037.63
2023-05-11T07:36:30.089Z,101039.50
2023-05-11T07:39:03.812Z,101040.06
2023-05-11T07:41:33.197Z,101041.94
2023-05-11T07:44:02.997Z,101046.53
2023-05-11T07:46:32.481Z,101048.72
2023-05-11T07:49:14.448Z,101041.38
2023-05-11T07:51:46.402Z,101044.88
2023-05-11T07:54:19.477Z,101039.72
2023-05-11T07:56:50.562Z,101042.47
2023-05-11T07:59:19.927Z,101053.88
2023-05-11T08:01:49.375Z,101048.72
2023-05-11T08:04:18.796Z,101053.31
2023-05-11T08:06:48.398Z,101057.38
2023-05-11T08:09:20.340Z,101052.81
2023-05-11T08:11:49.801Z,101055.78
2023-05-11T08:14:19.181Z,101055.78
2023-05-11T08:16:49.817Z,101050.94
2023-05-11T08:19:19.221Z,101052.53
2023-05-11T08:21:49.223Z,101054.69
2023-05-11T08:24:21.545Z,101060.69
2023-05-11T08:26:51.341Z,101063.63
2023-05-11T08:29:20.758Z,101067.44
2023-05-11T08:31:50.196Z,101063.31
2023-05-11T08:34:20.277Z,101074.72
2023-05-11T08:36:49.901Z,101065.00
2023-05-11T08:39:38.910Z,101063.41
2023-05-11T08:42:14.109Z,101063.41
2023-05-11T08:44:46.187Z,101068.47
2023-05-11T08:49:48.504Z,101061.69
2023-05-11T08:52:20.949Z,101075.03
2023-05-11T08:54:53.371Z,101068.22
2023-05-11T08:57:23.187Z,101072.88
2023-05-11T08:59:54.787Z,101079.91
2023-05-11T09:02:24.182Z,101078.81
2023-05-11T09:04:54.510Z,101065.50
2023-05-11T09:07:25.002Z,101078.53
2023-05-11T09:09:58.224Z,101078.28
2023-05-11T09:12:28.609Z,101075.00
2023-05-11T09:15:01.861Z,101082.84
2023-05-11T09:17:31.701Z,101074.75
2023-05-11T09:20:05.408Z,101077.75
2023-05-11T09:22:36.710Z,101074.78
2023-05-11T09:25:09.645Z,101072.88
2023-05-11T09:27:44.056Z,101075.28
2023-05-11T09:32:55.525Z,101075.25
2023-05-11T09:35:26.631Z,101074.22
2023-05-11T09:38:05.199Z,101069.81
2023-05-11T09:40:40.114Z,101080.19
2023-05-11T09:43:19.740Z,101077.22
2023-05-11T09:45:50.591Z,101075.00
2023-05-11T09:48:31.957Z,101084.22
2023-05-11T09:51:04.521Z,101081.28
2023-05-11T09:53:38.797Z,101079.34
2023-05-11T09:56:11.242Z,101076.63
2023-05-11T09:58:52.586Z,101074.72
2023-05-11T10:01:32.487Z,101075.59
2023-05-11T10:04:13.911Z,101068.81
2023-05-11T10:06:53.977Z,101075.81
2023-05-11T10:09:27.374Z,101072.03
2023-05-11T10:11:59.561Z,101076.31
2023-05-11T10:14:31.350Z,101075.28
2023-05-11T10:17:02.384Z,101070.41
2023-05-11T10:19:32.982Z,101065.78
2023-05-11T10:22:03.868Z,101068.50
2023-05-11T10:24:35.201Z,101063.63
2023-05-11T10:27:08.645Z,101063.91
2023-05-11T10:29:40.139Z,101063.41
2023-05-11T10:32:10.947Z,101072.91
2023-05-11T10:34:40.975Z,101064.50
2023-05-11T10:37:11.645Z,101060.66
2023-05-11T10:39:42.253Z,101060.94
2023-05-11T10:42:39.005Z,101062.31
2023-05-11T10:45:22.284Z,101062.84
2023-05-11T10:48:17.190Z,101067.47
2023-05-11T10:51:08.132Z,101060.41
2023-05-11T10:53:57.780Z,101061.78
2023-05-11T10:56:47.426Z,101057.72
2023-05-11T10:59:42.171Z,101070.97
2023-05-11T11:02:11.967Z,101069.63
2023-05-11T11:04:46.015Z,101061.78
2023-05-11T11:07:18.445Z,101061.78
2023-05-11T11:09:57.076Z,101059.06
2023-05-11T11:12:27.895Z,101057.41
2023-05-11T11:15:01.730Z,101052.00
2023-05-11T11:17:33.020Z,101049.00
2023-05-11T11:20:04.522Z,101050.38
2023-05-11T11:22:47.708Z,101054.16
2023-05-11T11:25:18.956Z,101057.16
2023-05-11T11:28:00.069Z,101061.25
2023-05-11T11:30:33.582Z,101060.69
2023-05-11T11:33:33.085Z,101056.91
2023-05-11T11:36:02.809Z,101066.94
2023-05-11T11:38:34.291Z,101065.59
2023-05-11T11:41:04.436Z,101059.06
2023-05-11T11:43:54.325Z,101067.19
2023-05-11T11:46:32.988Z,101075.09
2023-05-11T11:49:12.405Z,101071.00
2023-05-11T11:51:43.056Z,101061.75
2023-05-11T11:54:12.670Z,101062.03
2023-05-11T11:56:43.931Z,101056.28
2023-05-11T11:59:15.610Z,101046.78
2023-05-11T12:01:48.305Z,101052.47
2023-05-11T12:04:34.538Z,101054.63
2023-05-11T12:07:06.068Z,101044.31
2023-05-11T12:09:37.048Z,101046.47
2023-05-11T12:12:09.392Z,101044.88
2023-05-11T12:14:39.566Z,101048.63
2023-05-11T12:17:15.468Z,101043.16
2023-05-11T12:19:48.708Z,101042.63
2023-05-11T12:22:24.686Z,101035.56
2023-05-11T12:24:54.103Z,101017.84
2023-05-11T12:27:23.465Z,101026.03
2023-05-11T12:29:53.296Z,101023.75
2023-05-11T12:32:34.739Z,101029.19
2023-05-11T12:35:07.053Z,101025.06
2023-05-11T12:37:37.704Z,101024.25
2023-05-11T12:40:08.310Z,101028.81
2023-05-11T12:42:38.522Z,101026.94
2023-05-11T12:45:09.202Z,101028.91
2023-05-11T12:47:41.747Z,101017.97
2023-05-11T12:50:12.611Z,101016.81
2023-05-11T12:52:42.295Z,101010.88
2023-05-11T12:55:12.099Z,101012.81
2023-05-11T12:57:43.264Z,101004.97
2023-05-11T13:00:14.990Z,101000.22
2023-05-11T13:02:52.813Z,100999.72
2023-05-11T13:05:27.019Z,100999.94
2023-05-11T13:08:04.102Z,100998.06
2023-05-11T13:10:33.770Z,100993.00
2023-05-11T13:13:03.177Z,100991.56
2023-05-11T13:15:32.728Z,100981.19
2023-05-11T13:18:05.447Z,100987.38
2023-05-11T13:20:36.438Z,100991.50
2023-05-11T13:23:08.289Z,100992.41
2023-05-11T13:25:54.615Z,100994.56
2023-05-11T13:28:25.617Z,100998.25
2023-05-11T13:31:04.905Z,101000.44
2023-05-11T13:33:37.758Z,101006.84
2023-05-11T13:36:07.813Z,100992.81
2023-05-11T13:38:37.473Z,100986.97
2023-05-11T13:41:06.927Z,100985.69
2023-05-11T13:43:36.414Z,100970.38
2023-05-11T13:46:06.363Z,100969.03
2023-05-11T13:48:38.392Z,100965.16
2023-05-11T13:51:08.240Z,100970.91
2023-05-11T13:53:37.659Z,100962.34
2023-05-11T13:56:07.917Z,100967.84
2023-05-11T13:58:38.065Z,100964.34
2023-05-11T14:01:08.706Z,100966.63
2023-05-11T14:03:42.307Z,100967.38
2023-05-11T14:06:11.773Z,100970.94
2023-05-11T14:08:41.081Z,100966.88
2023-05-11T14:11:10.441Z,100963.34
2023-05-11T14:13:39.756Z,100964.34
2023-05-11T14:16:10.157Z,100961.31
2023-05-11T14:18:42.699Z,100961.84
2023-05-11T14:21:12.265Z,100966.28
2023-05-11T14:23:49.449Z,100962.91
2023-05-11T14:26:27.532Z,100955.31
2023-05-11T14:28:56.941Z,100959.91
2023-05-11T14:31:27.042Z,100957.00
2023-05-11T14:33:59.593Z,100957.84
2023-05-11T14:36:29.166Z,100946.41
2023-05-11T14:38:58.588Z,100951.34
2023-05-11T14:41:28.372Z,100956.44
2023-05-11T14:43:58.153Z,100953.47
2023-05-11T14:46:27.586Z,100947.78
2023-05-11T14:48:59.972Z,100947.50
2023-05-11T14:51:29.270Z,100962.72
2023-05-11T14:53:58.608Z,100972.47
2023-05-11T14:56:28.135Z,100967.56
2023-05-11T14:58:58.322Z,100962.97
2023-05-11T15:01:27.700Z,100965.34
2023-05-11T15:03:59.863Z,100971.41
2023-05-11T15:06:30.400Z,100963.47
2023-05-11T15:08:59.905Z,100967.03
2023-05-11T15:11:29.215Z,100966.47
2023-05-11T15:13:58.544Z,100969.66
2023-05-11T15:16:28.424Z,100972.63
2023-05-11T15:19:00.621Z,100967.75
2023-05-11T15:21:30.516Z,100963.50
2023-05-11T15:23:59.849Z,100966.56
2023-05-11T15:26:29.283Z,100958.31
2023-05-11T15:28:59.072Z,100961.59
2023-05-11T15:31:28.718Z,100959.91
2023-05-11T15:34:01.362Z,100965.13
2023-05-11T15:36:35.927Z,100973.56
2023-05-11T15:39:05.640Z,100976.97
2023-05-11T15:41:36.824Z,100970.19
2023-05-11T15:44:06.697Z,100962.06
2023-05-11T15:46:37.391Z,100960.09
2023-05-11T15:49:09.369Z,100986.75
2023-05-11T15:51:38.734Z,100978.53
2023-05-11T15:54:08.166Z,100986.16
2023-05-11T15:56:37.521Z,100977.72
2023-05-11T15:59:07.452Z,100985.38
2023-05-11T16:01:36.796Z,100985.59
2023-05-11T16:04:08.923Z,100976.34
2023-05-11T16:06:38.287Z,100970.97
2023-05-11T16:09:10.116Z,100974.81
2023-05-11T16:11:39.682Z,100959.63
2023-05-11T16:14:09.072Z,100953.72
2023-05-11T16:16:39.500Z,100956.41
2023-05-11T16:19:11.554Z,100959.34
2023-05-11T16:21:41.271Z,100954.31
2023-05-11T16:24:10.917Z,100951.22
2023-05-11T16:26:40.237Z,100956.47
2023-05-11T16:29:10.683Z,100958.44
2023-05-11T16:31:40.099Z,100958.09
2023-05-11T16:34:12.241Z,100949.38
2023-05-11T16:36:41.550Z,100950.69
2023-05-11T16:39:11.143Z,100947.25
2023-05-11T16:41:40.439Z,100946.06
2023-05-11T16:44:09.898Z,100958.09
2023-05-11T16:46:39.365Z,100945.63
2023-05-11T16:49:08.705Z,100953.00
2023-05-11T16:51:40.707Z,100944.50
2023-05-11T16:54:10.705Z,100942.78
2023-05-11T16:56:40.168Z,100945.50
2023-05-11T16:59:10.719Z,100942.59
2023-05-11T17:01:40.232Z,100936.59
2023-05-11T17:04:10.387Z,100944.41
2023-05-11T17:06:42.366Z,100945.56
2023-05-11T17:09:11.817Z,100938.97
2023-05-11T17:11:41.160Z,100935.34
2023-05-11T17:14:10.519Z,100934.97
2023-05-11T17:16:39.949Z,100928.56
2023-05-11T17:19:09.579Z,100934.03
2023-05-11T17:21:38.990Z,100931.84
2023-05-11T17:24:11.267Z,100933.31
2023-05-11T17:26:47.812Z,100945.78
2023-05-11T17:29:18.027Z,100945.56
2023-05-11T17:31:51.702Z,100948.31
2023-05-11T17:34:24.581Z,100950.50
2023-05-11T17:36:56.757Z,100963.38
2023-05-11T17:39:28.662Z,100954.50
2023-05-11T17:41:58.272Z,100962.41
2023-05-11T17:44:28.320Z,100964.50
2023-05-11T17:46:57.629Z,100954.25
2023-05-11T17:49:27.026Z,100963.28
2023-05-11T17:51:56.365Z,100957.56
2023-05-11T17:54:29.637Z,100960.25
2023-05-11T17:57:01.604Z,100967.69
2023-05-11T17:59:30.954Z,100959.44
2023-05-11T18:02:00.645Z,100959.19
2023-05-11T18:04:30.102Z,100967.38
2023-05-11T18:07:00.411Z,100971.28
2023-05-11T18:09:32.340Z,100969.06
2023-05-11T18:12:05.833Z,100962.22
2023-05-11T18:14:35.171Z,100965.66
2023-05-11T18:17:05.387Z,100970.28
2023-05-11T18:19:34.760Z,100972.63
2023-05-11T18:22:04.479Z,100970.25
2023-05-11T18:24:36.471Z,100972.63
2023-05-11T18:27:05.916Z,100975.97
2023-05-11T18:29:37.496Z,100977.16
2023-05-11T18:32:07.206Z,100980.28
2023-05-11T18:34:41.243Z,100973.81
2023-05-11T18:37:10.973Z,100978.75
2023-05-11T18:39:43.425Z,100976.19
2023-05-11T18:42:12.924Z,100989.28
2023-05-11T18:44:42.729Z,100989.66
2023-05-11T18:47:12.777Z,100987.19
2023-05-11T18:49:42.200Z,100993.91
2023-05-11T18:52:12.748Z,100991.19
2023-05-11T18:54:44.821Z,100999.00
2023-05-11T18:57:18.844Z,101007.06
2023-05-11T18:59:48.184Z,101006.03
2023-05-11T19:02:17.624Z,101016.19
2023-05-11T19:04:47.316Z,101027.25
2023-05-11T19:07:19.916Z,101008.16
2023-05-11T19:09:52.179Z,101021.63
2023-05-11T19:12:21.581Z,101031.38
2023-05-11T19:14:50.932Z,101020.63
2023-05-11T19:17:20.285Z,101028.16
2023-05-11T19:19:49.609Z,101030.50
2023-05-11T19:22:21.456Z,101030.19
2023-05-11T19:24:53.482Z,101030.25
2023-05-11T19:27:22.904Z,101036.63
2023-05-11T19:29:52.801Z,101045.91
2023-05-11T19:32:23.558Z,101050.38
2023-05-11T19:34:52.995Z,101038.13
2023-05-11T19:37:22.346Z,101044.41
2023-05-11T19:39:59.536Z,101038.09
2023-05-11T19:42:40.752Z,101048.31
2023-05-11T19:45:14.388Z,101050.75
2023-05-11T19:47:43.859Z,101046.44
2023-05-11T19:50:14.774Z,101045.63
2023-05-11T19:52:44.259Z,101046.63
2023-05-11T19:55:16.293Z,101054.75
2023-05-11T19:57:45.689Z,101054.59
2023-05-11T20:00:15.527Z,101063.25
2023-05-11T20:02:44.966Z,101067.56
2023-05-11T20:05:14.648Z,101068.94
2023-05-11T20:07:44.009Z,101076.97
2023-05-11T20:10:16.250Z,101075.78
2023-05-11T20:12:45.628Z,101069.25
2023-05-11T20:15:15.227Z,101077.69
2023-05-11T20:17:44.693Z,101081.47
2023-05-11T20:20:14.845Z,101076.03
2023-05-11T20:22:44.528Z,101092.47
2023-05-11T20:25:18.652Z,101094.16
2023-05-11T20:27:48.719Z,101097.63
2023-05-11T20:30:18.731Z,101095.78
2023-05-11T20:35:22.332Z,101110.25
2023-05-11T20:37:51.970Z,101117.13
2023-05-11T20:40:25.482Z,101122.88
2023-05-11T20:42:55.096Z,101119.19
2023-05-11T20:45:24.727Z,101119.47
2023-05-11T20:47:54.149Z,101128.25
2023-05-11T20:50:24.724Z,101124.41
2023-05-11T20:52:54.126Z,101125.22
2023-05-11T20:55:26.307Z,101131.47
2023-05-11T20:57:55.694Z,101131.47
2023-05-11T21:00:25.298Z,101138.66
2023-05-11T21:02:54.850Z,101139.25
2023-05-11T21:05:25.544Z,101137.91
2023-05-11T21:07:55.093Z,101146.84
2023-05-11T21:10:27.268Z,101124.84
2023-05-11T21:12:56.705Z,101132.75
2023-05-11T21:15:26.071Z,101129.19
2023-05-11T21:17:55.482Z,101132.78
2023-05-11T21:20:24.873Z,101137.38
2023-05-11T21:22:54.288Z,101146.94
2023-05-11T21:25:23.743Z,101145.31
2023-05-11T21:27:56.796Z,101153.41
2023-05-11T21:30:26.141Z,101147.75
2023-05-11T21:32:55.553Z,101149.38
2023-05-11T21:35:25.145Z,101152.34
2023-05-11T21:37:54.511Z,101156.72
2023-05-11T21:40:23.874Z,101152.63
2023-05-11T21:42:55.847Z,101153.97
2023-05-11T21:45:25.375Z,101153.44
2023-05-11T21:47:54.966Z,101169.75
2023-05-11T21:50:24.603Z,101164.59
2023-05-11T21:52:54.153Z,101171.38
2023-05-11T21:55:23.900Z,101169.47
2023-05-11T21:57:55.907Z,101169.16
2023-05-11T22:00:26.728Z,101166.19
2023-05-11T22:02:56.558Z,101172.50
2023-05-11T22:05:26.649Z,101176.84
2023-05-11T22:08:06.666Z,101186.34
2023-05-11T22:10:43.534Z,101179.28
2023-05-11T22:13:15.497Z,101188.22
2023-05-11T22:15:44.827Z,101181.19
2023-05-11T22:18:14.212Z,101183.91
2023-05-11T22:20:43.568Z,101180.38
2023-05-11T22:23:14.886Z,101184.44
2023-05-11T22:25:45.053Z,101180.06
2023-05-11T22:28:18.029Z,101185.25
2023-05-11T22:30:47.767Z,101185.81
2023-05-11T22:33:17.666Z,101195.03
2023-05-11T22:35:47.560Z,101185.78
2023-05-11T22:38:17.229Z,101193.66
2023-05-11T22:40:46.938Z,101200.19
2023-05-11T22:43:19.075Z,101199.94
2023-05-11T22:45:48.979Z,101195.03
2023-05-11T22:48:19.340Z,101191.78
2023-05-11T22:50:49.336Z,101200.44
2023-05-11T22:53:19.983Z,101200.75
2023-05-11T22:55:49.919Z,101197.47
2023-05-11T22:58:22.843Z,101196.13
2023-05-11T23:00:56.000Z,101203.47
2023-05-11T23:03:25.937Z,101194.78
2023-05-11T23:05:56.084Z,101202.13
2023-05-11T23:08:26.723Z,101205.13
2023-05-11T23:10:56.670Z,101211.63
2023-05-11T23:13:29.275Z,101206.19
2023-05-11T23:15:58.746Z,101209.47
2023-05-11T23:18:28.303Z,101210.03
2023-05-11T23:20:58.656Z,101213.81
2023-05-11T23:23:29.522Z,101211.63
2023-05-11T23:25:59.186Z,101199.13
2023-05-11T23:28:32.982Z,101208.66
2023-05-11T23:31:04.359Z,101206.50
2023-05-11T23:33:33.979Z,101207.28
2023-05-11T23:36:05.097Z,101206.19
2023-05-11T23:38:35.931Z,101213.00
2023-05-11T23:41:06.481Z,101208.66
2023-05-11T23:43:38.675Z,101210.28
2023-05-11T23:46:08.645Z,101206.75
2023-05-11T23:48:38.213Z,101209.22
2023-05-11T23:51:07.731Z,101217.06
2023-05-11T23:53:38.437Z,101202.13
2023-05-11T23:56:08.998Z,101209.47
2023-05-11T23:58:41.524Z,101206.19
